Terminal Aerodrome Forecast
Issued by NWS

Home | Current Version | Previous Version | Text Only | Print | Product List | Glossary On
Versions: 1 2 3 4 5 6 7 8 9 10 11 12 13 14 15 16 17 18 19 20 21 22 23 24
000
FTUS46 KEKA 240820 AAA
TAFCEC
TAF AMD
KCEC 240820Z 2408/2506 16025G35KT P6SM -RA BKN040 OVC050
      WS020/17050KT
      TEMPO 2408/2412 5SM -RA BR BKN035 OVC040
     FM241200 16015G23KT 4SM -RA BR BKN015 OVC030
     FM241500 17010KT 5SM RA BR BKN010 OVC020
     FM241700 16008KT 6SM -RA FEW010 SCT025 OVC035
      TEMPO 2421/2501 6SM -RA BR BKN010 OVC025=

USA.gov is the U.S. government's official web portal to all federal, state and local government web resources and services.